LOWI Airport Information

Runway Information
Runway 08 Length 6562 ft width 148 ft
Elevation 1906 ft Threshold 339 ft Heading 81
Runway 26 Length 6562 ft Width 148 ft
Elevation 1893 ft Threshold 198 ft Heading 261
Airport Frequencies
Type APP Name APP Frequency 119.275 MHZ
Type ATIS Name ATIS Frequency 126.025 MHZ
Type GND Crew Name Frequency 121.8 MHZ
Type GND Crew Name Frequency 121.9 MHZ
Type TWR Name TWR Frequency 120.1 MHZ
Airport Navaids
Type NDB Name Innsbruck Frequency 420 KHZ
Type NDB Name Kuhtai Frequency 413 KHZ
Airport Weather Information & NOTAM
ADDS - METARS form results

(1457 UTC 16 April 2021)
Data provider http://aviationweather.gov/metar/data/
 
METAR text: LOWI 161450Z 09005KT 360V140 9999 FEW070 11/M07 Q1017 NOSIG
Conditions at: LOWI (INNSBRUCK AIRPOR, AT) observed 1450 UTC 16 April 2021
Temperature: 11.0°C (52°F)
Dewpoint: -7.0°C (19°F) [RH = 28%]
Pressure (altimeter): 30.03 inches Hg (1017.0 mb)
Winds: from the E (90 degrees) at 6 MPH (5 knots; 2.6 m/s)
Visibility: 6 or more miles (10+ km)
Ceiling: at least 12,000 feet AGL
Clouds: few clouds at 7000 feet AGL
Weather: no significant weather observed at this time

METAR text: LOWI 161420Z 05007KT 360V100 9999 FEW070 10/M07 Q1017 NOSIG
Conditions at: LOWI (INNSBRUCK AIRPOR, AT) observed 1420 UTC 16 April 2021
Temperature: 10.0°C (50°F)
Dewpoint: -7.0°C (19°F) [RH = 29%]
Pressure (altimeter): 30.03 inches Hg (1017.0 mb)
Winds: from the NE (50 degrees) at 8 MPH (7 knots; 3.6 m/s)
Visibility: 6 or more miles (10+ km)
Ceiling: at least 12,000 feet AGL
Clouds: few clouds at 7000 feet AGL
Weather: no significant weather observed at this time

Forecast for: LOWI (INNSBRUCK AIRPOR, AT)
Text: TAF LOWI 161115Z 1612/1712 08008KT 9999 SCT050 TX10/1614Z TNM01/1704Z
Forecast period: 1200 to 1600 UTC 16 April 2021
Forecast type: FROM: standard forecast or significant change
Winds: from the E (80 degrees) at 9 MPH (8 knots; 4.1 m/s)
Visibility: 6 or more miles (10+ km)
Ceiling: at least 12,000 feet AGL
Clouds: scattered clouds at 5000 feet AGL
Weather: no significant weather forecast for this period
Text: BECMG 1616/1618 VRB02KT
Forecast period: 1600 UTC 16 April 2021 to 1200 UTC 17 April 2021
Forecast type: BECOMING: Conditions expected to become as follows by 1800 UTC 16 April 2021
Winds: variable direction winds at 2 MPH (2 knots; 1.0 m/s)
Visibility: 6 or more miles (10+ km)
Ceiling: at least 12,000 feet AGL
Clouds: scattered clouds at 5000 feet AGL
Weather: no significant weather forecast for this period